Time;durP1;ratioP1;P1;durP2;ratioP2;P2;SDS_P1;SDS_P2;PMS_P1;PMS_P2;Temp;Humidity;BMP_temperature;BMP_pressure;BME280_temperature;BME280_humidity;BME280_pressure;Samples;Min_cycle;Max_cycle;Signal;HPM_P1;HPM_P2
2020/12/02 00:02:33;;;;;;;30.83;12.50;;;2.30;70.30;;;;;;4993104;28;20031;-85
2020/12/02 00:05:08;;;;;;;27.58;12.98;;;2.30;70.20;;;;;;5010960;28;20018;-84
2020/12/02 00:07:34;;;;;;;28.13;10.80;;;2.30;70.20;;;;;;4990643;28;20015;-85
2020/12/02 00:10:00;;;;;;;28.08;12.15;;;2.30;70.10;;;;;;4994116;28;20121;-85
2020/12/02 00:12:26;;;;;;;26.13;11.27;;;2.30;70.10;;;;;;4991249;28;20110;-86
2020/12/02 00:14:51;;;;;;;28.55;12.27;;;2.30;70.20;;;;;;4993761;28;20470;-85
2020/12/02 00:17:19;;;;;;;25.15;12.30;;;2.30;70.30;;;;;;4991423;28;20034;-85
2020/12/02 00:19:46;;;;;;;31.50;12.40;;;2.30;70.20;;;;;;4995445;28;20486;-85
2020/12/02 00:22:18;;;;;;;27.45;12.27;;;2.30;70.00;;;;;;4992318;28;20126;-86
2020/12/02 00:24:44;;;;;;;24.92;10.57;;;2.30;70.20;;;;;;4990468;28;20051;-85
2020/12/02 00:27:22;;;;;;;27.40;11.18;;;2.30;70.20;;;;;;4992867;28;20058;-86
2020/12/02 00:29:48;;;;;;;30.20;11.63;;;2.30;70.20;;;;;;4992069;28;20042;-86
2020/12/02 00:32:30;;;;;;;26.50;11.07;;;2.30;70.20;;;;;;4995998;28;20411;-85
2020/12/02 00:34:57;;;;;;;25.63;11.15;;;2.30;70.40;;;;;;5010528;28;20034;-85
2020/12/02 00:37:24;;;;;;;24.80;10.02;;;2.40;70.30;;;;;;4995569;28;20081;-85
2020/12/02 00:39:50;;;;;;;28.90;12.65;;;2.40;70.40;;;;;;4991044;28;20116;-85
2020/12/02 00:42:16;;;;;;;27.85;11.95;;;2.40;70.40;;;;;;4991486;28;20022;-85
2020/12/02 00:44:42;;;;;;;28.00;12.48;;;2.40;70.20;;;;;;4990957;28;20394;-85
2020/12/02 00:47:10;;;;;;;27.88;12.15;;;2.40;70.10;;;;;;4992358;28;20169;-85
2020/12/02 00:49:37;;;;;;;26.02;11.32;;;2.30;69.90;;;;;;4990577;28;20027;-88
2020/12/02 00:52:04;;;;;;;26.73;11.73;;;2.30;70.00;;;;;;4993584;28;20438;-88
2020/12/02 00:54:29;;;;;;;28.05;11.38;;;2.20;69.90;;;;;;4991599;28;20117;-88
2020/12/02 00:56:56;;;;;;;28.27;11.32;;;2.30;70.20;;;;;;4994040;28;20457;-86
2020/12/02 00:59:28;;;;;;;27.08;10.70;;;2.30;70.30;;;;;;4992194;28;20045;-85
2020/12/02 01:02:15;;;;;;;26.38;11.98;;;2.30;70.30;;;;;;4990490;28;20019;-86
2020/12/02 01:04:45;;;;;;;26.73;9.57;;;2.30;70.30;;;;;;4988767;28;20037;-85
2020/12/02 01:07:13;;;;;;;26.65;11.50;;;2.30;70.10;;;;;;4993526;28;20053;-85
2020/12/02 01:09:38;;;;;;;28.05;11.52;;;2.30;70.40;;;;;;5009631;28;20121;-86
2020/12/02 01:12:04;;;;;;;28.20;11.32;;;2.30;70.30;;;;;;4993317;28;20134;-85
2020/12/02 01:14:30;;;;;;;27.02;11.90;;;2.30;70.40;;;;;;4991556;28;20059;-86
2020/12/02 01:16:59;;;;;;;28.35;11.65;;;2.30;70.30;;;;;;4993521;28;20022;-84
2020/12/02 01:19:34;;;;;;;25.08;11.25;;;2.30;70.20;;;;;;4994313;28;20025;-84
2020/12/02 01:22:19;;;;;;;27.60;11.02;;;2.30;70.40;;;;;;4990548;28;20023;-84
2020/12/02 01:25:00;;;;;;;28.30;10.73;;;2.30;70.30;;;;;;4989013;28;20026;-84
2020/12/02 01:27:52;;;;;;;27.05;11.30;;;2.30;70.30;;;;;;4993537;28;20022;-84
2020/12/02 01:30:19;;;;;;;25.17;10.90;;;2.30;70.30;;;;;;4984198;28;20479;-84
2020/12/02 01:32:45;;;;;;;26.08;10.48;;;2.30;70.20;;;;;;4991445;28;20034;-84
2020/12/02 01:35:21;;;;;;;29.73;11.32;;;2.20;70.50;;;;;;4990063;28;20041;-84
2020/12/02 01:37:51;;;;;;;28.65;10.57;;;2.30;70.50;;;;;;4992211;28;20042;-84
2020/12/02 01:40:29;;;;;;;27.42;11.13;;;2.30;70.60;;;;;;4991013;28;20034;-84
2020/12/02 01:43:05;;;;;;;25.40;9.98;;;2.30;70.50;;;;;;4989639;28;20475;-84
2020/12/02 01:45:40;;;;;;;27.38;10.75;;;2.30;70.50;;;;;;4993130;28;20117;-84
2020/12/02 01:48:28;;;;;;;29.20;11.95;;;2.40;70.50;;;;;;5011026;28;20038;-84
2020/12/02 01:50:57;;;;;;;25.67;10.90;;;2.40;70.60;;;;;;4991835;28;20081;-86
2020/12/02 01:53:44;;;;;;;31.13;12.68;;;2.40;70.50;;;;;;4995382;28;20387;-86
2020/12/02 01:56:23;;;;;;;29.27;12.32;;;2.40;70.60;;;;;;4989278;28;20065;-88
2020/12/02 01:59:13;;;;;;;30.75;13.07;;;2.40;70.50;;;;;;4989686;28;20109;-88
2020/12/02 02:02:01;;;;;;;29.20;12.15;;;2.40;70.50;;;;;;4991988;28;20018;-89
2020/12/02 02:04:52;;;;;;;28.15;10.90;;;2.40;70.50;;;;;;4992813;28;20110;-89
2020/12/02 02:07:24;;;;;;;29.20;12.88;;;2.40;70.50;;;;;;4985959;28;20125;-87
2020/12/02 02:09:54;;;;;;;31.42;12.63;;;2.40;70.60;;;;;;5008821;28;20117;-88
2020/12/02 02:13:01;;;;;;;28.80;11.88;;;2.40;70.50;;;;;;4989679;28;20023;-88
2020/12/02 02:15:40;;;;;;;33.50;12.55;;;2.40;70.60;;;;;;4989512;28;20030;-87
2020/12/02 02:18:13;;;;;;;27.13;12.27;;;2.40;70.70;;;;;;5004088;28;20049;-87
2020/12/02 02:20:45;;;;;;;32.78;12.43;;;2.40;70.60;;;;;;5007967;28;20047;-87
2020/12/02 02:23:12;;;;;;;30.05;12.63;;;2.40;70.70;;;;;;4991045;28;20106;-86
2020/12/02 02:25:41;;;;;;;30.33;11.68;;;2.40;70.80;;;;;;4989181;28;20468;-86
2020/12/02 02:28:08;;;;;;;31.65;12.75;;;2.50;70.70;;;;;;4991270;28;20029;-87
2020/12/02 02:30:34;;;;;;;29.52;11.25;;;2.40;70.60;;;;;;4989153;28;20042;-86
2020/12/02 02:33:00;;;;;;;30.70;12.60;;;2.40;70.80;;;;;;4992331;28;20069;-87
2020/12/02 02:35:27;;;;;;;32.22;14.00;;;2.40;70.60;;;;;;4989689;28;20027;-86
2020/12/02 02:37:53;;;;;;;30.52;13.45;;;2.50;70.70;;;;;;4993370;28;20065;-87
2020/12/02 02:40:18;;;;;;;27.00;11.00;;;2.40;70.70;;;;;;4990250;28;20039;-87
2020/12/02 02:42:50;;;;;;;29.27;12.18;;;2.50;70.70;;;;;;4989193;28;20035;-87
2020/12/02 02:45:24;;;;;;;28.02;10.48;;;2.50;70.70;;;;;;4991105;28;20069;-87
2020/12/02 02:47:52;;;;;;;26.48;10.60;;;2.50;70.70;;;;;;4989501;28;20110;-87
2020/12/02 02:50:21;;;;;;;30.25;11.32;;;2.50;70.70;;;;;;4988852;28;20034;-87
2020/12/02 02:52:47;;;;;;;31.55;10.50;;;2.50;70.80;;;;;;4990469;28;20023;-87
2020/12/02 02:55:19;;;;;;;26.13;10.70;;;2.50;70.90;;;;;;4989241;28;20121;-85
2020/12/02 02:57:45;;;;;;;28.75;11.02;;;2.60;70.90;;;;;;4991040;28;20022;-85
2020/12/02 03:00:17;;;;;;;30.67;12.63;;;2.50;70.50;;;;;;4989572;28;20023;-89
2020/12/02 03:02:42;;;;;;;29.75;12.18;;;2.50;70.60;;;;;;4990967;28;20463;-88
2020/12/02 03:05:09;;;;;;;28.88;11.38;;;2.50;70.90;;;;;;4992971;28;20041;-88
2020/12/02 03:07:36;;;;;;;30.42;12.40;;;2.50;70.90;;;;;;4992293;28;20034;-88
2020/12/02 03:10:01;;;;;;;29.50;12.00;;;2.50;70.80;;;;;;4991270;28;20042;-90
2020/12/02 03:12:28;;;;;;;28.85;13.35;;;2.50;70.60;;;;;;5008447;28;20030;-90
2020/12/02 03:14:55;;;;;;;28.65;13.45;;;2.50;70.80;;;;;;4991800;28;20026;-90
2020/12/02 03:17:22;;;;;;;31.80;12.38;;;2.50;70.90;;;;;;4991968;28;20147;-89
2020/12/02 03:20:00;;;;;;;36.30;13.32;;;2.50;70.80;;;;;;4987502;28;20453;-89
2020/12/02 03:22:27;;;;;;;31.67;11.85;;;2.50;70.90;;;;;;4991238;28;20027;-90
2020/12/02 03:24:56;;;;;;;27.80;11.70;;;2.50;70.90;;;;;;4991934;28;20038;-89
2020/12/02 03:27:22;;;;;;;27.83;12.27;;;2.50;70.80;;;;;;4988803;28;20027;-89
2020/12/02 03:29:48;;;;;;;31.45;11.25;;;2.50;70.90;;;;;;4989481;28;20545;-88
2020/12/02 03:32:14;;;;;;;28.13;11.82;;;2.50;71.00;;;;;;4991809;28;20026;-88
2020/12/02 03:34:39;;;;;;;31.83;12.93;;;2.50;70.90;;;;;;4990752;28;20034;-87
2020/12/02 03:37:05;;;;;;;28.08;12.05;;;2.50;71.50;;;;;;4988620;28;20391;-85
2020/12/02 03:39:31;;;;;;;33.58;13.05;;;2.60;71.00;;;;;;4989478;28;20050;-84
2020/12/02 03:41:56;;;;;;;26.83;11.32;;;2.60;70.80;;;;;;4988526;28;20434;-85
2020/12/02 03:44:22;;;;;;;26.92;12.23;;;2.50;70.50;;;;;;4991107;28;20062;-85
2020/12/02 03:46:48;;;;;;;27.70;11.80;;;2.50;70.90;;;;;;4991469;28;20030;-86
2020/12/02 03:49:13;;;;;;;33.05;12.77;;;2.50;70.80;;;;;;4988146;28;20062;-85
2020/12/02 03:51:39;;;;;;;27.90;11.48;;;2.50;70.60;;;;;;4989160;28;20039;-86
2020/12/02 03:54:05;;;;;;;28.77;11.50;;;2.40;70.30;;;;;;5007809;28;20026;-86
2020/12/02 03:56:32;;;;;;;31.05;12.82;;;2.40;70.50;;;;;;5007541;28;20034;-86
2020/12/02 03:58:58;;;;;;;32.42;11.15;;;2.40;70.90;;;;;;4989804;28;20023;-86
2020/12/02 04:01:23;;;;;;;30.25;12.23;;;2.40;71.00;;;;;;4994264;28;20084;-86
2020/12/02 04:03:49;;;;;;;30.35;10.85;;;2.40;70.70;;;;;;4991718;28;20023;-87
2020/12/02 04:06:16;;;;;;;29.80;12.13;;;2.30;70.70;;;;;;4977730;28;20022;-86
2020/12/02 04:08:43;;;;;;;31.67;11.50;;;2.40;71.20;;;;;;4992381;28;20027;-86
2020/12/02 04:11:09;;;;;;;30.92;12.05;;;2.40;71.20;;;;;;4996350;28;20034;-86
2020/12/02 04:13:35;;;;;;;32.17;12.60;;;2.40;70.80;;;;;;4993276;28;20035;-88
2020/12/02 04:16:02;;;;;;;31.75;13.70;;;2.40;70.80;;;;;;4991958;28;20086;-88
2020/12/02 04:18:28;;;;;;;30.98;11.70;;;2.40;71.20;;;;;;4994049;28;20204;-88
2020/12/02 04:20:54;;;;;;;33.58;12.18;;;2.40;71.10;;;;;;4991758;28;20027;-86
2020/12/02 04:23:20;;;;;;;27.90;11.90;;;2.40;70.80;;;;;;4994253;28;20030;-84
2020/12/02 04:25:46;;;;;;;28.52;12.65;;;2.40;71.10;;;;;;4993944;28;20124;-85
2020/12/02 04:28:12;;;;;;;27.73;12.15;;;2.40;71.80;;;;;;4996491;28;20033;-85
2020/12/02 04:30:38;;;;;;;29.42;12.20;;;2.40;70.90;;;;;;4994632;28;20483;-85
2020/12/02 04:33:03;;;;;;;25.50;10.52;;;2.40;70.70;;;;;;4998733;28;20494;-84
2020/12/02 04:35:29;;;;;;;25.08;10.88;;;2.40;70.80;;;;;;4993147;28;20030;-84
2020/12/02 04:37:55;;;;;;;30.30;12.80;;;2.40;71.20;;;;;;4994453;28;20042;-84
2020/12/02 04:40:32;;;;;;;26.40;11.13;;;2.40;70.80;;;;;;4993844;28;20509;-85
2020/12/02 04:43:10;;;;;;;33.83;13.55;;;2.40;71.10;;;;;;4995115;28;20022;-84
2020/12/02 04:45:36;;;;;;;29.85;11.90;;;2.40;71.20;;;;;;4986473;28;20078;-84
2020/12/02 04:48:07;;;;;;;26.98;11.80;;;2.40;71.20;;;;;;4993498;28;20022;-84
2020/12/02 04:50:33;;;;;;;26.70;12.60;;;2.40;71.20;;;;;;4993592;28;20038;-84
2020/12/02 04:53:01;;;;;;;30.17;11.40;;;2.50;71.00;;;;;;4990769;28;20110;-84
2020/12/02 04:55:27;;;;;;;31.40;12.55;;;2.50;71.40;;;;;;4990439;28;20031;-84
2020/12/02 04:57:53;;;;;;;26.60;12.02;;;2.50;71.30;;;;;;4990725;28;20057;-84
2020/12/02 05:00:32;;;;;;;27.33;10.50;;;2.50;71.10;;;;;;4990751;28;20058;-85
2020/12/02 05:03:10;;;;;;;31.80;11.45;;;2.50;71.00;;;;;;4991200;28;20058;-85
2020/12/02 05:05:36;;;;;;;24.08;9.50;;;2.50;71.00;;;;;;4985737;28;20027;-85
2020/12/02 05:08:29;;;;;;;24.88;10.50;;;2.40;70.90;;;;;;4992515;28;20030;-85
2020/12/02 05:10:56;;;;;;;29.83;11.27;;;2.40;70.90;;;;;;4992958;28;20041;-85
2020/12/02 05:13:23;;;;;;;27.20;10.75;;;2.40;71.10;;;;;;4990927;28;20038;-84
2020/12/02 05:16:02;;;;;;;27.02;10.38;;;2.40;71.40;;;;;;4994661;28;20418;-84
2020/12/02 05:18:28;;;;;;;24.70;9.85;;;2.40;71.30;;;;;;4992988;28;20074;-84
2020/12/02 05:21:05;;;;;;;23.75;9.52;;;2.50;72.30;;;;;;4974108;28;20074;-84
2020/12/02 05:23:31;;;;;;;25.85;10.90;;;2.50;71.50;;;;;;4994627;28;20030;-84
2020/12/02 05:25:57;;;;;;;30.77;9.93;;;2.50;71.50;;;;;;4991844;28;20045;-84
2020/12/02 05:28:33;;;;;;;26.70;10.13;;;2.60;71.30;;;;;;4990239;28;20102;-84
2020/12/02 05:31:23;;;;;;;25.27;9.93;;;2.60;71.60;;;;;;4992881;28;20034;-84
2020/12/02 05:33:49;;;;;;;29.67;11.65;;;2.60;71.50;;;;;;4992954;28;20030;-83
2020/12/02 05:36:22;;;;;;;23.90;9.38;;;2.60;71.00;;;;;;5009442;28;20122;-83
2020/12/02 05:39:02;;;;;;;28.65;9.90;;;2.50;71.30;;;;;;4984389;28;20039;-83
2020/12/02 05:41:28;;;;;;;27.52;10.80;;;2.60;71.30;;;;;;4992126;28;20422;-84
2020/12/02 05:43:59;;;;;;;30.20;12.20;;;2.60;71.30;;;;;;4991075;28;20018;-83
2020/12/02 05:46:35;;;;;;;29.65;11.75;;;2.60;72.00;;;;;;4987739;28;20026;-83
2020/12/02 05:49:11;;;;;;;29.95;11.77;;;2.60;71.40;;;;;;4992576;28;20053;-84
2020/12/02 05:51:39;;;;;;;24.90;11.15;;;2.60;71.70;;;;;;4990877;28;20031;-84
2020/12/02 05:54:10;;;;;;;22.40;9.73;;;2.60;71.60;;;;;;4989843;28;20081;-84
2020/12/02 05:56:36;;;;;;;28.05;10.63;;;2.60;71.40;;;;;;4993497;28;20426;-84
2020/12/02 05:59:04;;;;;;;31.42;11.52;;;2.60;71.20;;;;;;4989716;28;20019;-84
2020/12/02 06:01:30;;;;;;;31.13;12.23;;;2.60;71.30;;;;;;4988640;28;20031;-83
2020/12/02 06:03:59;;;;;;;28.02;10.75;;;2.60;71.60;;;;;;4990787;28;20026;-83
2020/12/02 06:06:30;;;;;;;26.08;10.30;;;2.60;71.40;;;;;;4993991;28;20408;-83
2020/12/02 06:08:57;;;;;;;29.48;10.82;;;2.60;71.30;;;;;;4993715;28;20015;-83
2020/12/02 06:11:26;;;;;;;29.63;12.73;;;2.60;71.30;;;;;;5008969;28;20375;-84
2020/12/02 06:14:05;;;;;;;26.05;11.43;;;2.70;71.60;;;;;;4988621;28;20038;-84
2020/12/02 06:16:35;;;;;;;33.15;11.20;;;2.70;71.60;;;;;;4991382;28;20038;-85
2020/12/02 06:19:23;;;;;;;29.77;11.75;;;2.60;71.70;;;;;;4993956;28;20463;-86
2020/12/02 06:21:53;;;;;;;28.75;11.82;;;2.70;71.70;;;;;;4991655;28;20046;-85
2020/12/02 06:24:34;;;;;;;29.73;11.18;;;2.80;71.70;;;;;;4992262;28;20470;-84
2020/12/02 06:27:02;;;;;;;31.08;12.82;;;2.80;71.60;;;;;;4992924;28;20498;-91
2020/12/02 06:29:37;;;;;;;30.27;12.07;;;2.80;71.60;;;;;;4994308;28;20034;-93
2020/12/02 06:32:24;;;;;;;28.73;11.63;;;2.80;71.40;;;;;;4987056;28;20026;-85
2020/12/02 06:35:36;;;;;;;;;;;;;;;;;;;;;
2020/12/02 06:38:24;;;;;;;27.95;11.85;;;2.80;71.50;;;;;;4983748;28;20408;-85
2020/12/02 06:41:00;;;;;;;26.52;10.77;;;2.70;71.40;;;;;;4967582;28;20019;-85
2020/12/02 06:43:47;;;;;;;30.95;10.68;;;2.70;71.70;;;;;;4972792;28;20137;-85
2020/12/02 06:46:13;;;;;;;26.35;10.15;;;2.80;71.70;;;;;;4973229;28;20027;-85
2020/12/02 06:48:42;;;;;;;25.10;10.10;;;2.80;71.70;;;;;;4972718;28;20490;-85
2020/12/02 06:51:14;;;;;;;29.20;10.85;;;2.80;72.10;;;;;;4972841;28;20125;-83
2020/12/02 06:53:40;;;;;;;22.50;9.85;;;2.80;71.50;;;;;;4972750;28;20026;-83
2020/12/02 06:56:06;;;;;;;26.35;10.88;;;2.80;71.50;;;;;;4973177;28;20026;-84
2020/12/02 06:58:32;;;;;;;23.80;10.48;;;2.70;71.10;;;;;;4989082;28;20170;-85
2020/12/02 07:01:04;;;;;;;27.25;10.48;;;2.60;71.40;;;;;;4972995;28;20463;-86
2020/12/02 07:03:49;;;;;;;22.15;9.70;;;2.70;71.20;;;;;;4972395;28;20042;-85
2020/12/02 07:06:49;;;;;;;27.67;11.13;;;2.70;71.40;;;;;;4972446;28;20122;-85
2020/12/02 07:09:17;;;;;;;27.42;11.20;;;2.70;71.70;;;;;;4971744;28;20038;-85
2020/12/02 07:12:16;;;;;;;24.08;11.07;;;2.70;71.50;;;;;;4980188;28;20391;-87
2020/12/02 07:15:35;;;;;;;25.67;10.65;;;2.70;71.60;;;;;;4986291;28;20427;-84
2020/12/02 07:25:12;;;;;;;27.02;10.32;;;2.80;71.70;;;;;;4915274;29;20545;-86
2020/12/02 07:28:23;;;;;;;;;;;;;;;;;;;;;
2020/12/02 07:35:25;;;;;;;;;;;;;;;;;;;;;
2020/12/02 07:38:47;;;;;;;;;;;;;;;;;;;;;
2020/12/02 08:02:28;;;;;;;34.72;13.77;;;2.50;71.60;;;;;;4879811;29;20121;-86
2020/12/02 08:04:59;;;;;;;37.13;12.43;;;2.50;71.30;;;;;;4853591;29;20040;-90
2020/12/02 08:13:59;;;;;;;29.27;11.90;;;2.60;71.40;;;;;;4943503;28;20035;-87
2020/12/02 08:16:37;;;;;;;31.02;11.43;;;2.60;71.90;;;;;;4969351;28;20081;-86
2020/12/02 08:19:20;;;;;;;;;;;;;;;;;;;;;
2020/12/02 08:21:54;;;;;;;29.90;12.15;;;2.60;71.50;;;;;;4963098;28;20023;-86
2020/12/02 08:24:48;;;;;;;31.25;11.70;;;2.60;71.50;;;;;;4954530;28;20419;-86
2020/12/02 08:27:16;;;;;;;34.93;11.53;;;2.60;71.80;;;;;;4966724;28;20031;-86
2020/12/02 08:29:53;;;;;;;34.83;14.18;;;2.60;71.60;;;;;;4967222;28;20066;-86
2020/12/02 08:43:30;;;;;;;36.88;13.95;;;2.40;70.70;;;;;;4943837;28;20026;-83
2020/12/02 08:46:08;;;;;;;31.30;11.93;;;2.30;71.10;;;;;;4974197;28;20038;-86
2020/12/02 08:48:52;;;;;;;;;;;;;;;;;;;;;
2020/12/02 08:51:25;;;;;;;33.38;10.98;;;2.30;71.60;;;;;;4975118;28;20053;-85
2020/12/02 08:53:56;;;;;;;27.20;10.00;;;2.30;71.40;;;;;;4974355;28;20022;-87
2020/12/02 08:56:34;;;;;;;28.48;9.63;;;2.40;71.70;;;;;;4975128;28;20062;-87
2020/12/02 08:59:01;;;;;;;27.67;11.40;;;2.30;71.50;;;;;;4975537;28;20058;-86
2020/12/02 09:01:30;;;;;;;31.05;12.50;;;2.30;71.60;;;;;;4974948;28;20023;-88
2020/12/02 09:03:56;;;;;;;21.33;8.95;;;2.30;71.40;;;;;;4964474;28;20028;-87
2020/12/02 09:06:22;;;;;;;27.80;10.48;;;2.30;71.30;;;;;;4971901;28;20040;-88
2020/12/02 09:12:40;;;;;;;25.60;9.27;;;2.30;71.50;;;;;;4937531;29;20484;-87
2020/12/02 09:18:26;;;;;;;26.08;8.35;;;2.20;71.50;;;;;;4970575;28;20117;-86
2020/12/02 09:20:51;;;;;;;23.67;8.48;;;2.30;72.00;;;;;;4974570;28;20051;-87
2020/12/02 09:23:27;;;;;;;16.67;6.45;;;2.40;71.60;;;;;;4974092;28;20513;-86
2020/12/02 09:25:52;;;;;;;24.17;10.07;;;2.30;71.50;;;;;;4974158;28;20027;-88
2020/12/02 09:28:36;;;;;;;24.60;8.00;;;2.30;71.30;;;;;;4974084;28;20031;-86
2020/12/02 09:31:02;;;;;;;22.02;9.02;;;2.40;71.80;;;;;;4974263;28;20034;-86
2020/12/02 09:33:27;;;;;;;24.45;9.30;;;2.40;72.00;;;;;;4974597;28;20494;-88
2020/12/02 09:35:54;;;;;;;25.80;10.48;;;2.50;72.20;;;;;;4974422;28;20356;-87
2020/12/02 09:39:16;;;;;;;25.60;9.32;;;2.50;71.70;;;;;;4973255;28;20023;-85
2020/12/02 09:42:27;;;;;;;23.45;8.80;;;2.60;72.30;;;;;;4971407;28;20065;-86
2020/12/02 09:45:05;;;;;;;22.13;8.70;;;2.70;72.70;;;;;;4975238;28;20057;-85
2020/12/02 09:51:41;;;;;;;24.73;9.85;;;2.80;71.70;;;;;;4974124;28;20089;-85
2020/12/02 09:54:42;;;;;;;20.08;7.60;;;2.80;71.60;;;;;;4972919;28;20058;-86
2020/12/02 09:57:30;;;;;;;17.88;6.82;;;2.80;72.10;;;;;;4974306;28;20030;-85
2020/12/02 10:00:22;;;;;;;29.38;9.73;;;2.90;71.90;;;;;;4976773;28;20467;-85
2020/12/02 10:03:34;;;;;;;27.60;9.35;;;2.90;71.70;;;;;;4980475;28;20030;-86
2020/12/02 10:10:00;;;;;;;23.15;9.68;;;3.00;72.10;;;;;;4943212;28;20039;-86
2020/12/02 10:12:28;;;;;;;21.33;9.65;;;2.90;71.20;;;;;;4973088;28;20027;-87
2020/12/02 10:15:41;;;;;;;25.02;8.75;;;2.80;71.30;;;;;;4974894;28;20089;-87
2020/12/02 10:18:15;;;;;;;26.50;8.55;;;2.90;71.60;;;;;;4972954;28;20023;-87
2020/12/02 10:20:45;;;;;;;25.75;9.27;;;2.90;71.80;;;;;;4973398;28;20031;-86
2020/12/02 10:23:32;;;;;;;25.92;9.32;;;3.00;72.30;;;;;;4973435;28;20022;-84
2020/12/02 10:33:09;;;;;;;;;;;3.30;72.10;;;;;;4973004;28;20026;-85
2020/12/02 10:35:46;;;;;;;24.52;9.23;;;3.20;71.00;;;;;;4972603;28;19906;-86
2020/12/02 10:38:49;;;;;;;29.55;11.25;;;3.10;71.10;;;;;;4973847;28;20077;-86
2020/12/02 10:41:56;;;;;;;26.17;10.50;;;3.00;71.40;;;;;;4951522;28;20043;-86
2020/12/02 10:45:04;;;;;;;23.92;8.55;;;3.00;71.00;;;;;;4960219;28;20451;-85
2020/12/02 10:47:49;;;;;;;24.50;9.20;;;2.90;71.10;;;;;;4980820;28;20059;-85
2020/12/02 10:53:26;;;;;;;28.45;10.38;;;2.80;71.10;;;;;;4971709;28;20369;-86
2020/12/02 10:55:56;;;;;;;28.30;10.27;;;2.90;71.30;;;;;;4967384;28;20026;-87
2020/12/02 10:58:30;;;;;;;30.33;10.32;;;2.80;71.70;;;;;;4972520;28;20050;-87
2020/12/02 11:01:19;;;;;;;27.42;10.85;;;2.80;71.50;;;;;;4972700;28;20069;-86
2020/12/02 11:04:38;;;;;;;25.50;10.32;;;2.90;71.70;;;;;;4972657;28;20076;-87
2020/12/02 11:07:04;;;;;;;;;;;3.00;71.80;;;;;;4972989;28;20027;-87
2020/12/02 11:10:19;;;;;;;26.67;9.07;;;3.10;71.90;;;;;;4975880;28;19979;-87
2020/12/02 11:16:04;;;;;;;25.60;9.52;;;3.00;70.90;;;;;;4977518;28;20031;-86
2020/12/02 11:18:57;;;;;;;33.42;12.65;;;3.00;71.10;;;;;;4978953;28;20113;-91
2020/12/02 11:21:53;;;;;;;25.58;10.88;;;2.90;71.10;;;;;;4997032;28;20031;-91
2020/12/02 11:24:37;;;;;;;23.13;8.82;;;3.00;71.90;;;;;;4973558;28;20027;-90
2020/12/02 11:27:04;;;;;;;26.00;8.88;;;3.00;71.70;;;;;;4978940;28;20481;-91
2020/12/02 11:29:30;;;;;;;22.73;8.60;;;3.00;71.50;;;;;;4961192;28;20059;-92
2020/12/02 11:31:58;;;;;;;21.08;7.85;;;3.00;71.20;;;;;;4977666;28;20501;-92
2020/12/02 11:34:42;;;;;;;21.58;8.40;;;2.90;70.80;;;;;;4976823;28;20065;-90
2020/12/02 11:37:24;;;;;;;22.75;8.65;;;2.90;71.40;;;;;;4976990;28;20031;-91
2020/12/02 11:40:15;;;;;;;27.83;11.05;;;3.00;71.40;;;;;;4977397;28;20034;-92
2020/12/02 11:43:19;;;;;;;25.50;9.65;;;2.90;70.90;;;;;;4988604;28;20026;-93
2020/12/02 11:45:46;;;;;;;23.67;8.73;;;2.90;70.70;;;;;;4965838;28;20043;-91
2020/12/02 11:48:35;;;;;;;27.52;9.65;;;2.90;71.10;;;;;;4984964;28;20065;-85
2020/12/02 11:51:22;;;;;;;22.92;9.23;;;2.90;71.30;;;;;;4987680;28;20429;-87
2020/12/02 11:53:56;;;;;;;27.50;10.60;;;3.00;71.50;;;;;;4978354;28;20099;-88
2020/12/02 11:56:44;;;;;;;25.10;10.05;;;3.00;71.00;;;;;;5006198;28;20470;-87
2020/12/02 11:59:19;;;;;;;29.38;12.18;;;2.90;71.00;;;;;;4997669;28;20028;-86
2020/12/02 12:01:53;;;;;;;21.75;8.98;;;2.90;71.10;;;;;;5011011;28;20019;-88
2020/12/02 12:04:44;;;;;;;27.23;11.13;;;2.90;71.10;;;;;;4979234;28;20031;-86
2020/12/02 12:07:16;;;;;;;30.58;12.93;;;2.90;71.20;;;;;;4986170;28;20023;-88
2020/12/02 12:09:58;;;;;;;31.92;12.93;;;3.00;70.90;;;;;;4984713;28;20076;-89
2020/12/02 12:12:35;;;;;;;26.27;11.82;;;3.00;71.20;;;;;;4998310;28;20018;-87
2020/12/02 12:15:16;;;;;;;26.92;11.85;;;3.00;71.10;;;;;;4987226;28;20085;-89
2020/12/02 12:18:01;;;;;;;30.73;13.27;;;2.90;70.60;;;;;;4993083;28;20080;-87
2020/12/02 12:20:32;;;;;;;24.75;11.38;;;2.80;70.40;;;;;;4984752;28;20026;-88
2020/12/02 12:23:04;;;;;;;27.33;10.60;;;2.80;70.60;;;;;;4987624;28;20110;-93
2020/12/02 12:25:35;;;;;;;26.25;9.50;;;2.70;70.40;;;;;;4999271;28;20026;-93
2020/12/02 12:28:11;;;;;;;21.63;8.52;;;2.70;71.10;;;;;;4990668;28;20390;-93
2020/12/02 12:30:36;;;;;;;28.92;13.68;;;2.70;71.40;;;;;;5000000;28;20065;-93
2020/12/02 12:33:06;;;;;;;29.55;12.70;;;2.70;70.60;;;;;;4956235;28;20483;-94
2020/12/02 12:35:38;;;;;;;27.25;14.15;;;2.60;70.60;;;;;;4986078;28;20364;-91
2020/12/02 12:38:16;;;;;;;27.63;13.20;;;2.70;71.00;;;;;;4979214;28;20061;-91
2020/12/02 12:40:49;;;;;;;24.63;12.20;;;2.70;70.80;;;;;;4996065;28;20026;-90
2020/12/02 12:43:18;;;;;;;24.77;12.02;;;2.70;70.80;;;;;;4994955;28;20022;-92
2020/12/02 12:45:47;;;;;;;29.23;13.70;;;2.70;71.10;;;;;;4997107;28;20030;-93
2020/12/02 12:48:21;;;;;;;23.88;10.65;;;2.60;70.80;;;;;;4989038;28;20038;-92
2020/12/02 12:50:52;;;;;;;24.90;9.85;;;2.70;70.70;;;;;;4982074;28;20042;-93
2020/12/02 12:53:19;;;;;;;33.38;13.38;;;2.60;70.70;;;;;;4990895;28;20019;-93
2020/12/02 12:55:45;;;;;;;25.45;12.95;;;2.70;70.50;;;;;;4966470;28;20041;-91
2020/12/02 12:58:17;;;;;;;25.60;13.38;;;2.60;70.80;;;;;;4978975;28;20022;-92
2020/12/02 13:00:54;;;;;;;29.98;12.63;;;2.60;70.90;;;;;;4986976;28;20602;-92
2020/12/02 13:03:23;;;;;;;27.58;12.18;;;2.70;71.00;;;;;;4978803;28;20034;-91
2020/12/02 13:06:03;;;;;;;27.83;12.60;;;2.70;71.10;;;;;;4983528;28;20022;-95
2020/12/02 13:08:43;;;;;;;28.58;13.15;;;2.80;71.00;;;;;;4975054;28;20027;-96
2020/12/02 13:11:19;;;;;;;26.42;12.43;;;2.80;70.90;;;;;;5000591;28;20034;-94
2020/12/02 13:14:08;;;;;;;24.02;10.27;;;2.80;70.70;;;;;;4987911;28;20018;-93
2020/12/02 13:16:40;;;;;;;29.10;11.00;;;2.80;70.60;;;;;;4978742;28;20027;-94
2020/12/02 13:19:25;;;;;;;24.75;11.75;;;2.70;70.10;;;;;;4987747;28;20163;-95
2020/12/02 13:22:23;;;;;;;26.13;11.70;;;2.70;70.70;;;;;;4979215;28;20121;-93
2020/12/02 13:24:57;;;;;;;28.55;11.85;;;2.70;70.80;;;;;;4973484;28;20117;-88
2020/12/02 13:27:44;;;;;;;23.83;10.85;;;2.70;70.80;;;;;;4984566;28;20030;-91
2020/12/02 13:30:22;;;;;;;30.08;13.05;;;2.70;70.30;;;;;;4986279;28;20528;-88
2020/12/02 13:33:04;;;;;;;26.55;11.45;;;2.60;70.40;;;;;;4979882;28;20470;-89
2020/12/02 13:35:31;;;;;;;24.20;10.95;;;2.60;70.20;;;;;;4988132;28;20088;-87
2020/12/02 13:38:00;;;;;;;29.92;11.18;;;2.60;70.40;;;;;;4992792;28;20025;-88
2020/12/02 13:40:26;;;;;;;25.52;12.00;;;2.60;70.30;;;;;;4985639;28;20037;-89
2020/12/02 13:42:52;;;;;;;24.85;11.80;;;2.60;70.60;;;;;;4992722;28;20025;-88
2020/12/02 13:45:22;;;;;;;25.20;12.27;;;2.50;70.50;;;;;;4969313;28;20287;-90
2020/12/02 13:47:51;;;;;;;24.60;11.73;;;2.60;70.60;;;;;;4970986;28;20045;-90
2020/12/02 13:50:23;;;;;;;25.50;12.63;;;2.60;70.60;;;;;;4966529;28;20089;-89
2020/12/02 13:53:16;;;;;;;23.55;11.30;;;2.60;70.20;;;;;;4957700;28;20383;-89
2020/12/02 13:55:54;;;;;;;28.50;11.40;;;2.50;70.10;;;;;;4958228;28;20038;-89
2020/12/02 13:58:47;;;;;;;23.05;10.45;;;2.40;69.90;;;;;;4956878;28;20179;-94
2020/12/02 14:01:29;;;;;;;24.90;10.07;;;2.40;69.80;;;;;;4960521;28;20026;-96
2020/12/02 14:04:00;;;;;;;24.10;10.98;;;2.30;69.50;;;;;;4968145;28;20049;-96
2020/12/02 14:06:44;;;;;;;24.95;11.50;;;2.20;70.00;;;;;;4969489;28;20106;-92
2020/12/02 14:09:14;;;;;;;23.98;11.52;;;2.20;70.30;;;;;;4969723;28;20027;-92
2020/12/02 14:11:50;;;;;;;27.05;13.63;;;2.20;70.40;;;;;;4969951;28;20031;-92
2020/12/02 14:14:34;;;;;;;25.65;11.50;;;2.20;70.20;;;;;;4963037;28;20023;-95
2020/12/02 14:17:00;;;;;;;26.42;11.82;;;2.30;70.30;;;;;;4963424;28;20126;-89
2020/12/02 14:19:28;;;;;;;24.52;11.45;;;2.20;70.30;;;;;;4950325;28;20058;-96
2020/12/02 14:22:06;;;;;;;29.48;13.85;;;2.20;70.20;;;;;;4966064;28;20031;-96
2020/12/02 14:24:32;;;;;;;21.98;10.45;;;2.20;70.20;;;;;;4960566;28;20026;-94
2020/12/02 14:27:11;;;;;;;26.67;14.05;;;2.20;69.80;;;;;;4970380;28;20022;-87
2020/12/02 14:30:07;;;;;;;25.42;10.27;;;2.10;69.40;;;;;;4995478;28;20011;-86
2020/12/02 14:32:34;;;;;;;25.70;12.55;;;2.00;69.80;;;;;;4968830;28;20027;-92
2020/12/02 14:35:01;;;;;;;23.13;9.65;;;2.00;69.80;;;;;;4961468;28;20022;-94
2020/12/02 14:37:26;;;;;;;26.25;11.52;;;2.00;70.10;;;;;;4943993;28;20035;-92
2020/12/02 14:39:57;;;;;;;29.25;12.35;;;2.00;69.70;;;;;;4943271;28;20026;-94
2020/12/02 14:42:22;;;;;;;26.48;11.82;;;1.90;69.80;;;;;;4958688;28;20031;-95
2020/12/02 14:44:48;;;;;;;26.33;11.32;;;1.90;69.90;;;;;;4927929;28;20022;-94